Gaston, South Carolina
Current Conditions -  °F | °C
As of 10:56 AM on Thursday 23 Oct 2014 (Local Time) from KCAE Reporting Station
Clear Clear  
Wind Chill: 61°   Ceiling: Unl
Heat Index: 61°   Visibility: 10mi
Dew Point: 41°   Wind: 8mph
Humidity: 48%   Direction: 310°NW
Pressure: 30.1"   Gusts: NA
Location:  33.82°N, 81.1°W
Report Text: KCAE 231456Z 31007KT 10SM CLR 16/05 A3010 RMK AO2 SLP192 T01610050 50005
Loading
Personal Weather Stations






























Interactive Weather Map
Tropical Storm Tracking
New forecast layout! Learn more

10-Day Weather Forecast

Advertisements
Track Severe Weather on mobile